createdAt,value
2022-11-21T00:02:29.145Z,0.68
2022-11-21T00:05:01.893Z,0.80
2022-11-21T00:07:32.896Z,1.02
2022-11-21T00:10:00.215Z,1.25
2022-11-21T00:12:30.429Z,1.02
2022-11-21T00:14:58.883Z,1.30
2022-11-21T00:17:28.934Z,1.00
2022-11-21T00:19:57.040Z,1.00
2022-11-21T00:22:23.972Z,1.00
2022-11-21T00:24:54.131Z,0.90
2022-11-21T00:27:21.402Z,0.80
2022-11-21T00:29:51.938Z,1.00
2022-11-21T00:32:21.613Z,1.20
2022-11-21T00:34:50.789Z,1.20
2022-11-21T00:37:19.555Z,1.00
2022-11-21T00:39:49.217Z,1.10
2022-11-21T00:42:19.701Z,0.85
2022-11-21T00:44:50.954Z,1.02
2022-11-21T00:47:21.157Z,1.00
2022-11-21T00:49:57.139Z,0.90
2022-11-21T00:52:26.716Z,1.02
2022-11-21T00:54:57.653Z,1.00
2022-11-21T00:57:27.654Z,0.93
2022-11-21T01:00:00.974Z,1.20
2022-11-21T01:02:31.464Z,0.85
2022-11-21T01:04:58.971Z,1.20
2022-11-21T01:07:25.827Z,1.17
2022-11-21T01:09:59.311Z,0.80
2022-11-21T01:12:26.252Z,1.25
2022-11-21T01:15:02.812Z,0.98
2022-11-21T01:17:33.342Z,0.90
2022-11-21T01:20:06.389Z,1.30
2022-11-21T01:22:36.703Z,0.57
2022-11-21T01:25:07.041Z,1.15
2022-11-21T01:27:34.626Z,0.80
2022-11-21T01:30:07.589Z,0.80
2022-11-21T01:32:38.257Z,0.73
2022-11-21T01:35:10.992Z,0.70
2022-11-21T01:37:46.894Z,1.00
2022-11-21T01:40:23.020Z,0.82
2022-11-21T01:42:55.923Z,1.20
2022-11-21T01:45:41.210Z,0.93
2022-11-21T01:48:12.174Z,0.75
2022-11-21T01:50:44.286Z,1.00
2022-11-21T01:53:12.941Z,1.10
2022-11-21T01:55:40.211Z,0.90
2022-11-21T01:58:10.776Z,0.80
2022-11-21T02:00:41.461Z,1.00
2022-11-21T02:03:13.926Z,1.23
2022-11-21T02:05:46.989Z,1.20
2022-11-21T02:08:20.660Z,0.80
2022-11-21T02:11:02.404Z,0.88
2022-11-21T02:13:31.905Z,0.80
2022-11-21T02:15:59.050Z,1.00
2022-11-21T02:18:29.395Z,1.15
2022-11-21T02:21:03.832Z,1.05
2022-11-21T02:23:38.130Z,0.82
2022-11-21T02:26:08.353Z,0.70
2022-11-21T02:28:35.372Z,0.80
2022-11-21T02:31:05.657Z,1.58
2022-11-21T02:33:35.558Z,0.90
2022-11-21T02:36:09.915Z,0.73
2022-11-21T02:38:38.456Z,0.70
2022-11-21T02:41:26.885Z,0.90
2022-11-21T02:44:02.249Z,0.80
2022-11-21T02:46:29.592Z,1.00
2022-11-21T02:49:03.230Z,0.80
2022-11-21T02:51:33.363Z,0.93
2022-11-21T02:54:00.893Z,0.93
2022-11-21T02:56:33.729Z,0.95
2022-11-21T02:59:02.660Z,0.90
2022-11-21T03:01:31.784Z,0.98
2022-11-21T03:04:04.628Z,0.77
2022-11-21T03:06:31.697Z,1.10
2022-11-21T03:08:58.808Z,1.00
2022-11-21T03:11:29.129Z,0.88
2022-11-21T03:13:56.342Z,0.80
2022-11-21T03:16:25.216Z,0.65
2022-11-21T03:18:56.928Z,0.70
2022-11-21T03:21:24.927Z,0.93
2022-11-21T03:23:51.962Z,0.65
2022-11-21T03:26:19.073Z,0.60
2022-11-21T03:28:47.525Z,0.90
2022-11-21T03:31:17.871Z,1.00
2022-11-21T03:33:48.018Z,1.23
2022-11-21T03:36:14.952Z,1.10
2022-11-21T03:38:44.956Z,0.98
2022-11-21T03:41:30.114Z,0.80
2022-11-21T03:44:01.899Z,0.80
2022-11-21T03:46:33.962Z,0.88
2022-11-21T03:49:04.217Z,1.05
2022-11-21T03:51:34.418Z,0.63
2022-11-21T03:54:01.498Z,0.90
2022-11-21T03:56:28.639Z,0.70
2022-11-21T03:58:55.843Z,0.85
2022-11-21T04:01:25.559Z,0.70
2022-11-21T04:03:52.977Z,0.40
2022-11-21T04:06:26.442Z,0.90
2022-11-21T04:08:57.098Z,0.88
2022-11-21T04:11:25.898Z,0.57
2022-11-21T04:13:57.888Z,0.85
2022-11-21T04:16:24.919Z,0.68
2022-11-21T04:18:51.863Z,0.50
2022-11-21T04:21:18.770Z,0.75
2022-11-21T04:23:53.043Z,0.75
2022-11-21T04:26:23.089Z,0.73
2022-11-21T04:28:53.176Z,0.57
2022-11-21T04:31:23.309Z,0.40
2022-11-21T04:33:53.534Z,0.77
2022-11-21T04:36:22.997Z,0.60
2022-11-21T04:42:14.090Z,0.88
2022-11-21T04:44:41.145Z,0.60
2022-11-21T04:47:26.457Z,1.25
2022-11-21T04:49:56.127Z,1.15
2022-11-21T04:52:26.367Z,0.70
2022-11-21T04:54:53.400Z,0.60
2022-11-21T04:57:23.108Z,0.95
2022-11-21T04:59:58.005Z,0.80
2022-11-21T05:02:27.764Z,0.77
2022-11-21T05:04:54.771Z,0.60
2022-11-21T05:07:25.015Z,0.50
2022-11-21T05:09:59.010Z,0.85
2022-11-21T05:12:43.883Z,0.70
2022-11-21T05:15:10.967Z,0.50
2022-11-21T05:17:37.828Z,1.00
2022-11-21T05:20:11.103Z,0.80
2022-11-21T05:22:38.388Z,0.68
2022-11-21T05:25:11.525Z,0.55
2022-11-21T05:27:41.586Z,0.80
2022-11-21T05:30:11.447Z,0.80
2022-11-21T05:32:38.358Z,0.60
2022-11-21T05:35:08.631Z,0.70
2022-11-21T05:37:35.482Z,0.65
2022-11-21T05:40:05.280Z,0.65
2022-11-21T05:42:50.747Z,0.85
2022-11-21T05:45:21.234Z,0.60
2022-11-21T05:47:50.497Z,0.70
2022-11-21T05:50:17.750Z,0.68
2022-11-21T05:52:47.027Z,0.90
2022-11-21T05:55:30.726Z,0.70
2022-11-21T05:58:01.411Z,0.52
2022-11-21T06:00:31.036Z,0.63
2022-11-21T06:03:16.599Z,0.60
2022-11-21T06:05:43.610Z,0.77
2022-11-21T06:08:10.639Z,0.40
2022-11-21T06:10:43.458Z,0.60
2022-11-21T06:13:22.511Z,0.50
2022-11-21T06:15:54.296Z,0.90
2022-11-21T06:18:24.006Z,0.73
2022-11-21T06:20:56.843Z,0.60
2022-11-21T06:23:24.081Z,0.60
2022-11-21T06:25:59.758Z,0.70
2022-11-21T06:28:29.629Z,0.73
2022-11-21T06:31:02.363Z,0.63
2022-11-21T06:33:36.210Z,0.60
2022-11-21T06:36:06.597Z,0.50
2022-11-21T06:38:34.435Z,0.73
2022-11-21T06:41:08.539Z,0.70
2022-11-21T06:43:38.200Z,0.70
2022-11-21T06:46:05.323Z,0.90
2022-11-21T06:48:38.354Z,0.75
2022-11-21T06:51:06.530Z,0.90
2022-11-21T06:53:35.284Z,0.60
2022-11-21T06:56:05.568Z,0.70
2022-11-21T06:58:32.791Z,0.90
2022-11-21T07:01:04.240Z,0.77
2022-11-21T07:03:37.168Z,0.90
2022-11-21T07:09:30.857Z,0.70
2022-11-21T07:11:50.726Z,0.90
2022-11-21T07:14:21.222Z,0.63
2022-11-21T07:16:48.361Z,0.60
2022-11-21T07:19:15.400Z,0.77
2022-11-21T07:21:44.794Z,1.00
2022-11-21T07:24:12.518Z,0.70
2022-11-21T07:26:45.775Z,1.00
2022-11-21T07:29:12.893Z,0.95
2022-11-21T07:31:42.877Z,1.40
2022-11-21T07:34:11.671Z,0.70
2022-11-21T07:36:41.972Z,1.05
2022-11-21T07:39:09.048Z,0.77
2022-11-21T07:41:39.465Z,1.25
2022-11-21T07:44:09.789Z,1.25
2022-11-21T07:46:36.817Z,0.93
2022-11-21T07:49:04.002Z,1.83
2022-11-21T07:51:34.254Z,1.20
2022-11-21T07:54:01.332Z,1.00
2022-11-21T07:56:29.148Z,1.10
2022-11-21T07:58:59.420Z,1.08
2022-11-21T08:01:26.627Z,1.00
2022-11-21T08:03:58.896Z,0.90
2022-11-21T08:06:26.014Z,1.02
2022-11-21T08:08:59.389Z,0.70
2022-11-21T08:11:26.467Z,1.10
2022-11-21T08:13:59.308Z,1.48
2022-11-21T08:16:31.019Z,0.60
2022-11-21T08:19:01.131Z,0.85
2022-11-21T08:21:37.790Z,1.17
2022-11-21T08:24:05.023Z,1.10
2022-11-21T08:26:35.530Z,0.80
2022-11-21T08:29:05.650Z,1.00
2022-11-21T08:31:33.090Z,0.93
2022-11-21T08:34:02.816Z,0.80
2022-11-21T08:36:35.497Z,0.80
2022-11-21T08:39:03.133Z,0.90
2022-11-21T08:41:48.914Z,1.10
2022-11-21T08:44:18.914Z,0.90
2022-11-21T08:46:52.052Z,0.80
2022-11-21T08:49:21.499Z,0.95
2022-11-21T08:51:51.012Z,0.80
2022-11-21T08:54:18.650Z,0.70
2022-11-21T08:56:49.200Z,0.80
2022-11-21T08:59:19.812Z,0.70
2022-11-21T09:01:46.946Z,0.43
2022-11-21T09:04:16.451Z,0.73
2022-11-21T09:06:43.765Z,0.73
2022-11-21T09:09:19.428Z,0.80
2022-11-21T09:11:54.687Z,0.85
2022-11-21T09:14:40.352Z,0.68
2022-11-21T09:17:26.095Z,0.77
2022-11-21T09:19:53.348Z,0.60
2022-11-21T09:22:20.515Z,0.75
2022-11-21T09:24:57.044Z,0.98
2022-11-21T09:27:27.209Z,0.80
2022-11-21T09:29:57.069Z,0.73
2022-11-21T09:32:30.626Z,0.88
2022-11-21T09:35:01.087Z,0.82
2022-11-21T09:37:28.174Z,0.80
2022-11-21T09:39:55.935Z,0.80
2022-11-21T09:42:23.070Z,0.70
2022-11-21T09:45:00.868Z,0.82
2022-11-21T09:47:33.946Z,0.80
2022-11-21T09:50:21.202Z,0.90
2022-11-21T09:52:51.821Z,0.90
2022-11-21T09:55:18.823Z,0.82
2022-11-21T09:57:48.046Z,1.05
2022-11-21T10:00:22.421Z,0.98
2022-11-21T10:02:56.364Z,1.10
2022-11-21T10:05:51.064Z,0.80
2022-11-21T10:08:30.975Z,0.98
2022-11-21T10:11:28.140Z,0.80
2022-11-21T10:14:03.414Z,0.60
2022-11-21T10:16:52.510Z,0.80
2022-11-21T10:19:25.705Z,1.02
2022-11-21T10:22:04.754Z,1.05
2022-11-21T10:24:50.534Z,0.82
2022-11-21T10:27:24.003Z,0.90
2022-11-21T10:29:55.382Z,0.70
2022-11-21T10:32:27.826Z,0.70
2022-11-21T10:35:04.785Z,0.60
2022-11-21T10:37:39.088Z,0.80
2022-11-21T10:40:26.618Z,0.82
2022-11-21T10:42:56.949Z,0.93
2022-11-21T10:45:24.381Z,0.70
2022-11-21T10:47:57.309Z,0.70
2022-11-21T10:50:39.829Z,0.80
2022-11-21T10:53:36.435Z,0.80
2022-11-21T10:56:09.295Z,1.23
2022-11-21T10:58:41.620Z,0.98
2022-11-21T11:01:23.021Z,0.85
2022-11-21T11:04:37.545Z,0.90
2022-11-21T11:07:24.953Z,0.82
2022-11-21T11:10:12.483Z,1.10
2022-11-21T11:12:57.554Z,0.77
2022-11-21T11:15:29.183Z,0.68
2022-11-21T11:18:09.015Z,0.98
2022-11-21T11:20:36.778Z,0.93
2022-11-21T11:23:21.588Z,0.80
2022-11-21T11:25:52.201Z,1.00
2022-11-21T11:28:24.893Z,1.10
2022-11-21T11:30:56.844Z,0.90
2022-11-21T11:33:29.880Z,1.00
2022-11-21T11:36:14.511Z,0.80
2022-11-21T11:38:56.993Z,1.10
2022-11-21T11:41:58.499Z,0.93
2022-11-21T11:44:55.458Z,0.90
2022-11-21T11:47:33.946Z,0.93
2022-11-21T11:50:14.808Z,1.20
2022-11-21T11:52:48.006Z,0.90
2022-11-21T11:55:22.071Z,0.77
2022-11-21T11:57:53.444Z,0.70
2022-11-21T12:00:40.827Z,0.68
2022-11-21T12:03:21.689Z,0.82
2022-11-21T12:05:59.077Z,0.68
2022-11-21T12:08:49.224Z,1.08
2022-11-21T12:11:37.659Z,0.80
2022-11-21T12:14:12.623Z,0.80
2022-11-21T12:16:40.659Z,1.00
2022-11-21T12:19:16.342Z,0.90
2022-11-21T12:21:46.474Z,0.80
2022-11-21T12:24:14.278Z,0.75
2022-11-21T12:26:59.845Z,0.80
2022-11-21T12:29:43.338Z,0.82
2022-11-21T12:32:32.512Z,1.25
2022-11-21T12:35:07.398Z,0.90
2022-11-21T12:37:52.604Z,0.98
2022-11-21T12:40:32.003Z,2.80
2022-11-21T12:43:05.689Z,4.30
2022-11-21T12:45:39.763Z,2.15
2022-11-21T12:48:37.434Z,1.45
2022-11-21T12:51:23.088Z,1.65
2022-11-21T12:54:16.235Z,1.60
2022-11-21T12:57:03.324Z,1.35
2022-11-21T12:59:31.859Z,1.00
2022-11-21T13:02:16.836Z,0.82
2022-11-21T13:04:47.049Z,0.90
2022-11-21T13:07:14.611Z,1.10
2022-11-21T13:09:43.177Z,0.90
2022-11-21T13:12:19.202Z,1.05
2022-11-21T13:14:53.953Z,0.90
2022-11-21T13:17:34.808Z,0.90
2022-11-21T13:20:08.106Z,1.02
2022-11-21T13:22:39.611Z,1.00
2022-11-21T13:25:13.814Z,0.90
2022-11-21T13:27:45.851Z,1.30
2022-11-21T13:30:16.334Z,0.90
2022-11-21T13:32:56.796Z,1.25
2022-11-21T13:35:29.436Z,1.05
2022-11-21T13:38:01.100Z,0.93
2022-11-21T13:40:30.969Z,1.10
2022-11-21T13:46:05.578Z,1.08
2022-11-21T13:48:39.090Z,1.05
2022-11-21T13:51:06.173Z,0.98
2022-11-21T13:53:57.830Z,1.13
2022-11-21T13:56:28.439Z,1.27
2022-11-21T13:59:04.473Z,0.57
2022-11-21T14:01:49.620Z,1.25
2022-11-21T14:04:30.611Z,0.60
2022-11-21T14:07:17.524Z,1.10
2022-11-21T14:09:54.911Z,1.20
2022-11-21T14:12:31.591Z,1.40
2022-11-21T14:15:00.512Z,1.05
2022-11-21T14:17:45.033Z,1.45
2022-11-21T14:20:29.522Z,1.02
2022-11-21T14:23:02.849Z,1.17
2022-11-21T14:25:45.049Z,1.10
2022-11-21T14:28:23.686Z,0.93
2022-11-21T14:31:12.994Z,1.20
2022-11-21T14:33:44.204Z,1.63
2022-11-21T14:36:13.970Z,1.10
2022-11-21T14:39:07.661Z,1.13
2022-11-21T14:41:38.809Z,1.20
2022-11-21T14:44:07.128Z,1.63
2022-11-21T14:46:36.709Z,1.27
2022-11-21T14:49:13.096Z,1.45
2022-11-21T14:51:43.274Z,1.70
2022-11-21T14:54:14.212Z,1.95
2022-11-21T14:56:41.809Z,1.88
2022-11-21T14:59:20.092Z,1.55
2022-11-21T15:01:55.517Z,1.17
2022-11-21T15:04:27.695Z,1.63
2022-11-21T15:06:57.529Z,1.70
2022-11-21T15:12:17.989Z,1.35
2022-11-21T15:14:56.809Z,1.63
2022-11-21T15:17:25.597Z,1.65
2022-11-21T15:20:13.795Z,1.23
2022-11-21T15:22:41.759Z,1.45
2022-11-21T15:25:08.850Z,1.52
2022-11-21T15:27:36.820Z,1.65
2022-11-21T15:30:09.807Z,1.60
2022-11-21T15:32:55.450Z,1.63
2022-11-21T15:35:32.250Z,1.38
2022-11-21T15:38:02.637Z,1.20
2022-11-21T15:40:29.769Z,2.20
2022-11-21T15:42:57.490Z,1.65
2022-11-21T15:45:29.273Z,1.58
2022-11-21T15:47:57.692Z,1.48
2022-11-21T15:50:25.523Z,1.45
2022-11-21T15:53:07.069Z,1.00
2022-11-21T15:55:37.008Z,0.90
2022-11-21T15:58:07.254Z,1.10
2022-11-21T16:00:34.169Z,1.05
2022-11-21T16:05:58.940Z,1.10
2022-11-21T16:08:25.996Z,0.90
2022-11-21T16:10:56.434Z,0.90
2022-11-21T16:13:26.528Z,1.00
2022-11-21T16:15:56.754Z,0.90
2022-11-21T16:18:29.658Z,0.95
2022-11-21T16:24:03.048Z,0.80
2022-11-21T16:29:47.137Z,0.70
2022-11-21T16:32:19.992Z,0.70
2022-11-21T16:34:52.043Z,0.80
2022-11-21T16:37:43.050Z,0.68
2022-11-21T16:43:30.363Z,0.80
2022-11-21T16:49:03.002Z,0.80
2022-11-21T16:51:30.420Z,0.70
2022-11-21T16:54:07.331Z,0.88
2022-11-21T16:56:36.333Z,1.08
2022-11-21T16:59:06.121Z,1.17
2022-11-21T17:01:36.770Z,1.17
2022-11-21T17:04:15.667Z,1.45
2022-11-21T17:06:47.568Z,1.05
2022-11-21T17:09:14.660Z,0.90
2022-11-21T17:11:46.837Z,1.30
2022-11-21T17:14:17.323Z,1.10
2022-11-21T17:16:52.572Z,1.00
2022-11-21T17:19:22.754Z,0.73
2022-11-21T17:21:53.448Z,1.00
2022-11-21T17:24:20.376Z,0.88
2022-11-21T17:26:47.408Z,0.90
2022-11-21T17:29:14.529Z,0.90
2022-11-21T17:31:47.271Z,0.60
2022-11-21T17:34:14.681Z,0.77
2022-11-21T17:36:44.901Z,1.00
2022-11-21T17:39:13.447Z,0.73
2022-11-21T17:41:50.088Z,0.60
2022-11-21T17:44:17.560Z,0.52
2022-11-21T17:46:49.444Z,0.70
2022-11-21T17:49:16.960Z,0.80
2022-11-21T17:51:55.239Z,0.80
2022-11-21T17:54:26.676Z,0.90
2022-11-21T17:56:56.827Z,0.82
2022-11-21T17:59:28.772Z,1.00
2022-11-21T18:01:59.849Z,1.20
2022-11-21T18:04:35.089Z,1.02
2022-11-21T18:07:02.679Z,1.50
2022-11-21T18:09:41.203Z,1.60
2022-11-21T18:12:11.289Z,1.75
2022-11-21T18:14:41.082Z,2.08
2022-11-21T18:17:08.711Z,1.92
2022-11-21T18:19:41.070Z,1.30
2022-11-21T18:22:13.488Z,1.77
2022-11-21T18:24:42.593Z,2.50
2022-11-21T18:27:14.171Z,2.30
2022-11-21T18:29:41.194Z,1.45
2022-11-21T18:32:12.888Z,1.60
2022-11-21T18:34:46.911Z,2.25
2022-11-21T18:37:17.203Z,2.60
2022-11-21T18:39:50.281Z,2.55
2022-11-21T18:42:21.728Z,2.45
2022-11-21T18:44:55.165Z,2.20
2022-11-21T18:47:25.048Z,2.03
2022-11-21T18:49:57.563Z,1.83
2022-11-21T18:52:27.695Z,2.22
2022-11-21T18:54:57.845Z,2.67
2022-11-21T18:57:31.864Z,2.95
2022-11-21T19:00:03.636Z,2.67
2022-11-21T19:02:31.657Z,2.63
2022-11-21T19:05:03.448Z,3.15
2022-11-21T19:07:31.056Z,3.58
2022-11-21T19:10:20.768Z,3.35
2022-11-21T19:12:53.889Z,2.50
2022-11-21T19:15:25.593Z,2.45
2022-11-21T19:17:55.549Z,2.60
2022-11-21T19:20:25.730Z,2.58
2022-11-21T19:22:53.787Z,3.13
2022-11-21T19:25:24.038Z,2.20
2022-11-21T19:27:55.400Z,2.55
2022-11-21T19:30:22.364Z,2.30
2022-11-21T19:32:49.652Z,3.38
2022-11-21T19:35:19.362Z,1.85
2022-11-21T19:37:52.093Z,2.50
2022-11-21T19:40:22.000Z,2.15
2022-11-21T19:42:54.991Z,1.85
2022-11-21T19:45:27.630Z,2.20
2022-11-21T19:48:00.083Z,2.30
2022-11-21T19:50:32.559Z,2.33
2022-11-21T19:53:02.728Z,1.65
2022-11-21T19:55:31.771Z,1.35
2022-11-21T19:57:58.675Z,2.03
2022-11-21T20:00:31.517Z,1.65
2022-11-21T20:03:01.749Z,2.20
2022-11-21T20:05:34.576Z,2.30
2022-11-21T20:08:14.214Z,2.38
2022-11-21T20:10:48.683Z,1.95
2022-11-21T20:13:18.719Z,2.05
2022-11-21T20:15:52.221Z,2.15
2022-11-21T20:18:22.220Z,1.33
2022-11-21T20:20:55.279Z,1.60
2022-11-21T20:23:22.204Z,1.77
2022-11-21T20:25:54.841Z,2.22
2022-11-21T20:28:23.299Z,1.65
2022-11-21T20:30:51.236Z,1.80
2022-11-21T20:33:24.859Z,2.38
2022-11-21T20:35:52.536Z,2.10
2022-11-21T20:38:24.493Z,1.00
2022-11-21T20:40:55.085Z,1.55
2022-11-21T20:43:44.195Z,1.75
2022-11-21T20:46:18.684Z,2.53
2022-11-21T20:48:47.394Z,1.92
2022-11-21T20:54:05.473Z,2.28
2022-11-21T20:56:35.585Z,2.90
2022-11-21T20:59:05.631Z,2.47
2022-11-21T21:01:33.024Z,3.00
2022-11-21T21:04:09.916Z,2.70
2022-11-21T21:06:41.600Z,2.40
2022-11-21T21:09:11.794Z,2.67
2022-11-21T21:11:52.927Z,2.78
2022-11-21T21:14:24.074Z,2.67
2022-11-21T21:16:51.175Z,2.33
2022-11-21T21:19:18.934Z,2.80
2022-11-21T21:21:49.314Z,1.83
2022-11-21T21:24:19.205Z,2.63
2022-11-21T21:26:50.804Z,2.55
2022-11-21T21:29:21.866Z,2.05
2022-11-21T21:31:52.260Z,2.50
2022-11-21T21:34:23.671Z,2.67
2022-11-21T21:36:51.653Z,2.65
2022-11-21T21:39:20.260Z,2.92
2022-11-21T21:41:50.549Z,2.25
2022-11-21T21:44:19.518Z,1.67
2022-11-21T21:46:53.138Z,0.70
2022-11-21T21:49:25.021Z,3.05
2022-11-21T21:51:55.402Z,2.35
2022-11-21T21:54:28.706Z,3.38
2022-11-21T21:56:59.056Z,2.30
2022-11-21T21:59:32.168Z,2.13
2022-11-21T22:01:59.892Z,3.20
2022-11-21T22:04:27.759Z,3.03
2022-11-21T22:07:00.908Z,2.47
2022-11-21T22:09:28.450Z,2.58
2022-11-21T22:12:02.196Z,2.95
2022-11-21T22:14:35.640Z,2.90
2022-11-21T22:17:08.584Z,2.42
2022-11-21T22:19:38.247Z,3.10
2022-11-21T22:22:05.441Z,2.92
2022-11-21T22:24:40.887Z,3.13
2022-11-21T22:27:08.261Z,2.75
2022-11-21T22:29:35.537Z,2.72
2022-11-21T22:32:08.729Z,2.80
2022-11-21T22:34:35.913Z,2.70
2022-11-21T22:37:03.316Z,2.45
2022-11-21T22:39:30.771Z,2.55
2022-11-21T22:42:00.733Z,2.28
2022-11-21T22:44:29.232Z,2.58
2022-11-21T22:46:59.589Z,2.40
2022-11-21T22:49:27.495Z,2.33
2022-11-21T22:51:57.650Z,2.75
2022-11-21T22:54:31.252Z,2.60
2022-11-21T22:56:58.483Z,2.85
2022-11-21T22:59:25.575Z,2.13
2022-11-21T23:01:56.264Z,2.47
2022-11-21T23:04:26.632Z,2.40
2022-11-21T23:06:56.890Z,2.47
2022-11-21T23:09:27.109Z,2.50
2022-11-21T23:11:58.091Z,2.35
2022-11-21T23:14:30.919Z,2.75
2022-11-21T23:17:05.398Z,2.75
2022-11-21T23:19:36.572Z,2.30
2022-11-21T23:22:03.840Z,1.92
2022-11-21T23:24:35.743Z,2.10
2022-11-21T23:27:08.853Z,2.28
2022-11-21T23:29:39.248Z,1.95
2022-11-21T23:32:06.535Z,2.15
2022-11-21T23:34:33.376Z,2.08
2022-11-21T23:37:03.489Z,1.88
2022-11-21T23:39:30.934Z,2.20
2022-11-21T23:41:58.212Z,2.20
2022-11-21T23:44:30.138Z,2.20
2022-11-21T23:47:00.297Z,2.55
2022-11-21T23:49:31.373Z,2.22
2022-11-21T23:52:01.942Z,1.88
2022-11-21T23:54:31.929Z,2.28
2022-11-21T23:57:01.699Z,2.50
2022-11-21T23:59:32.299Z,1.73
